createdAt,value
2022-07-26T00:01:19.044Z,24.12
2022-07-26T00:03:48.137Z,23.96
2022-07-26T00:06:16.380Z,24.02
2022-07-26T00:08:49.528Z,23.95
2022-07-26T00:11:17.895Z,23.92
2022-07-26T00:13:46.635Z,23.93
2022-07-26T00:16:14.929Z,23.91
2022-07-26T00:18:43.609Z,23.95
2022-07-26T00:21:12.034Z,23.93
2022-07-26T00:23:40.467Z,23.98
2022-07-26T00:26:10.298Z,24.01
2022-07-26T00:28:38.804Z,24.02
2022-07-26T00:31:07.011Z,23.90
2022-07-26T00:33:35.597Z,23.86
2022-07-26T00:36:03.674Z,23.81
2022-07-26T00:38:31.881Z,23.73
2022-07-26T00:41:00.092Z,23.59
2022-07-26T00:43:29.634Z,23.50
2022-07-26T00:45:57.714Z,23.43
2022-07-26T00:48:26.219Z,23.45
2022-07-26T00:50:55.761Z,23.44
2022-07-26T00:53:24.889Z,23.37
2022-07-26T00:55:53.957Z,23.33
2022-07-26T00:58:22.347Z,23.26
2022-07-26T01:00:51.974Z,23.22
2022-07-26T01:03:20.213Z,23.21
2022-07-26T01:05:50.851Z,23.11
2022-07-26T01:08:19.004Z,23.05
2022-07-26T01:10:47.830Z,22.98
2022-07-26T01:13:23.561Z,22.97
2022-07-26T01:15:53.161Z,22.95
2022-07-26T01:18:21.283Z,22.97
2022-07-26T01:20:50.927Z,22.90
2022-07-26T01:23:20.971Z,22.93
2022-07-26T01:25:49.780Z,22.89
2022-07-26T01:28:20.561Z,22.90
2022-07-26T01:30:50.318Z,22.84
2022-07-26T01:33:18.514Z,22.74
2022-07-26T01:35:46.986Z,22.79
2022-07-26T01:38:15.173Z,22.80
2022-07-26T01:40:44.695Z,22.71
2022-07-26T01:43:12.888Z,22.66
2022-07-26T01:45:41.463Z,22.74
2022-07-26T01:48:09.807Z,22.85
2022-07-26T01:50:38.481Z,22.84
2022-07-26T01:53:06.638Z,22.95
2022-07-26T01:55:34.785Z,22.96
2022-07-26T01:58:05.222Z,22.93
2022-07-26T02:00:34.020Z,22.91
2022-07-26T02:03:02.318Z,22.81
2022-07-26T02:05:30.885Z,22.87
2022-07-26T02:07:59.091Z,22.97
2022-07-26T02:10:50.420Z,22.89
2022-07-26T02:13:19.947Z,22.78
2022-07-26T02:15:48.823Z,22.68
2022-07-26T02:18:17.046Z,22.56
2022-07-26T02:20:45.695Z,22.52
2022-07-26T02:23:13.967Z,22.52
2022-07-26T02:25:42.025Z,22.45
2022-07-26T02:28:10.278Z,22.48
2022-07-26T02:30:39.824Z,22.58
2022-07-26T02:33:08.428Z,22.63
2022-07-26T02:35:36.800Z,22.67
2022-07-26T02:38:06.402Z,22.72
2022-07-26T02:40:35.215Z,22.77
2022-07-26T02:43:03.473Z,22.75
2022-07-26T02:45:31.591Z,22.83
2022-07-26T02:48:01.624Z,22.78
2022-07-26T02:50:30.706Z,22.74
2022-07-26T02:52:58.966Z,22.82
2022-07-26T02:55:28.372Z,22.76
2022-07-26T02:57:56.595Z,22.71
2022-07-26T03:00:26.196Z,22.63
2022-07-26T03:02:54.678Z,22.48
2022-07-26T03:05:24.771Z,22.43
2022-07-26T03:07:53.025Z,22.35
2022-07-26T03:10:21.311Z,22.32
2022-07-26T03:12:49.416Z,22.27
2022-07-26T03:15:17.647Z,22.24
2022-07-26T03:17:45.744Z,22.22
2022-07-26T03:20:14.525Z,22.17
2022-07-26T03:22:44.629Z,22.14
2022-07-26T03:25:13.029Z,22.15
2022-07-26T03:27:41.181Z,22.12
2022-07-26T03:30:10.490Z,22.10
2022-07-26T03:32:38.722Z,22.15
2022-07-26T03:35:08.539Z,22.20
2022-07-26T03:37:44.928Z,22.20
2022-07-26T03:40:16.129Z,22.39
2022-07-26T03:42:46.227Z,22.52
2022-07-26T03:45:14.738Z,22.60
2022-07-26T03:47:42.934Z,22.84
2022-07-26T03:50:14.111Z,22.91
2022-07-26T03:52:42.520Z,23.08
2022-07-26T03:55:29.078Z,23.15
2022-07-26T03:57:59.072Z,23.37
2022-07-26T04:00:27.358Z,23.70
2022-07-26T04:02:55.522Z,23.81
2022-07-26T04:05:26.045Z,23.88
2022-07-26T04:07:54.721Z,23.95
2022-07-26T04:10:24.842Z,23.91
2022-07-26T04:12:55.387Z,24.03
2022-07-26T04:15:24.896Z,24.13
2022-07-26T04:17:53.025Z,24.26
2022-07-26T04:20:21.128Z,24.37
2022-07-26T04:22:49.248Z,24.44
2022-07-26T04:25:17.438Z,24.54
2022-07-26T04:27:45.552Z,24.53
2022-07-26T04:30:15.684Z,24.76
2022-07-26T04:32:46.677Z,24.96
2022-07-26T04:35:16.219Z,25.13
2022-07-26T04:37:45.235Z,25.16
2022-07-26T04:40:21.258Z,25.24
2022-07-26T04:42:51.513Z,25.41
2022-07-26T04:45:19.749Z,25.50
2022-07-26T04:47:51.533Z,25.63
2022-07-26T04:50:20.506Z,25.74
2022-07-26T04:52:49.996Z,25.75
2022-07-26T04:55:18.819Z,25.74
2022-07-26T04:57:48.399Z,25.81
2022-07-26T05:00:22.950Z,26.09
2022-07-26T05:02:56.534Z,26.18
2022-07-26T05:05:25.516Z,26.30
2022-07-26T05:07:55.622Z,26.28
2022-07-26T05:10:29.195Z,26.27
2022-07-26T05:12:57.296Z,26.39
2022-07-26T05:15:25.994Z,26.61
2022-07-26T05:18:07.084Z,26.90
2022-07-26T05:20:36.830Z,27.15
2022-07-26T05:23:05.191Z,27.36
2022-07-26T05:25:33.729Z,27.50
2022-07-26T05:28:01.891Z,27.67
2022-07-26T05:30:30.475Z,27.79
2022-07-26T05:32:58.642Z,27.88
2022-07-26T05:35:28.517Z,27.85
2022-07-26T05:37:56.644Z,27.77
2022-07-26T05:40:24.960Z,27.74
2022-07-26T05:42:53.165Z,27.70
2022-07-26T05:45:21.882Z,27.80
2022-07-26T05:47:51.421Z,27.57
2022-07-26T05:50:20.610Z,27.75
2022-07-26T05:52:50.933Z,27.99
2022-07-26T05:55:19.369Z,28.23
2022-07-26T05:57:49.472Z,28.22
2022-07-26T06:00:18.553Z,27.84
2022-07-26T06:02:47.964Z,27.82
2022-07-26T06:05:16.413Z,27.84
2022-07-26T06:07:46.105Z,27.79
2022-07-26T06:10:16.093Z,27.89
2022-07-26T06:12:44.181Z,27.64
2022-07-26T06:15:15.570Z,27.68
2022-07-26T06:17:44.411Z,27.80
2022-07-26T06:20:13.151Z,27.97
2022-07-26T06:22:41.362Z,28.08
2022-07-26T06:25:10.045Z,28.08
2022-07-26T06:27:39.669Z,27.87
2022-07-26T06:30:10.454Z,27.79
2022-07-26T06:32:38.640Z,27.86
2022-07-26T06:35:07.576Z,27.95
2022-07-26T06:37:38.096Z,28.08
2022-07-26T06:40:08.129Z,28.17
2022-07-26T06:42:36.894Z,28.01
2022-07-26T06:45:08.070Z,27.97
2022-07-26T06:47:36.554Z,28.08
2022-07-26T06:50:06.376Z,28.21
2022-07-26T06:52:35.044Z,28.17
2022-07-26T06:55:03.899Z,28.05
2022-07-26T06:57:32.503Z,28.04
2022-07-26T07:00:00.849Z,28.16
2022-07-26T07:02:30.544Z,28.10
2022-07-26T07:04:58.928Z,28.02
2022-07-26T07:07:27.429Z,28.08
2022-07-26T07:09:57.175Z,28.10
2022-07-26T07:12:27.287Z,28.22
2022-07-26T07:14:55.486Z,28.18
2022-07-26T07:17:23.786Z,28.02
2022-07-26T07:19:53.649Z,28.08
2022-07-26T07:22:22.478Z,28.13
2022-07-26T07:24:50.632Z,28.18
2022-07-26T07:27:18.885Z,28.12
2022-07-26T07:29:49.140Z,27.99
2022-07-26T07:32:18.881Z,27.98
2022-07-26T07:34:50.054Z,27.68
2022-07-26T07:37:20.778Z,27.84
2022-07-26T07:39:50.276Z,27.91
2022-07-26T07:42:19.261Z,28.26
2022-07-26T07:44:48.538Z,28.39
2022-07-26T07:47:16.843Z,28.49
2022-07-26T07:49:45.160Z,28.75
2022-07-26T07:52:13.284Z,29.04
2022-07-26T07:54:42.893Z,29.28
2022-07-26T07:57:11.956Z,29.44
2022-07-26T07:59:42.993Z,29.51
2022-07-26T08:02:12.898Z,29.67
2022-07-26T08:04:41.145Z,29.64
2022-07-26T08:07:09.368Z,29.38
2022-07-26T08:09:37.565Z,29.35
2022-07-26T08:12:12.971Z,29.23
2022-07-26T08:14:41.631Z,29.09
2022-07-26T08:17:09.779Z,29.25
2022-07-26T08:19:41.886Z,29.39
2022-07-26T08:22:10.806Z,29.12
2022-07-26T08:24:39.005Z,29.28
2022-07-26T08:27:07.129Z,29.62
2022-07-26T08:29:36.870Z,29.71
2022-07-26T08:32:05.574Z,29.94
2022-07-26T08:34:33.743Z,30.06
2022-07-26T08:37:16.549Z,30.15
2022-07-26T08:39:46.922Z,30.38
2022-07-26T08:42:16.259Z,29.90
2022-07-26T08:44:47.080Z,29.78
2022-07-26T08:47:16.315Z,29.66
2022-07-26T08:49:49.684Z,29.74
2022-07-26T08:52:18.488Z,30.03
2022-07-26T08:54:47.932Z,30.23
2022-07-26T08:57:16.689Z,30.26
2022-07-26T08:59:47.760Z,30.30
2022-07-26T09:02:16.093Z,30.35
2022-07-26T09:04:46.456Z,30.53
2022-07-26T09:07:16.789Z,30.46
2022-07-26T09:09:59.092Z,30.66
2022-07-26T09:12:28.917Z,30.97
2022-07-26T09:14:59.552Z,31.21
2022-07-26T09:17:40.718Z,31.27
2022-07-26T09:20:11.060Z,31.37
2022-07-26T09:22:41.208Z,31.50
2022-07-26T09:25:22.865Z,31.07
2022-07-26T09:27:52.361Z,31.00
2022-07-26T09:30:22.268Z,30.99
2022-07-26T09:33:05.886Z,30.91
2022-07-26T09:35:52.122Z,31.02
2022-07-26T09:38:20.905Z,31.22
2022-07-26T09:41:03.799Z,31.45
2022-07-26T09:43:38.700Z,31.41
2022-07-26T09:46:11.316Z,31.40
2022-07-26T09:51:40.278Z,31.13
2022-07-26T09:54:10.092Z,31.02
2022-07-26T09:56:47.174Z,31.09
2022-07-26T09:59:17.451Z,31.38
2022-07-26T10:01:47.619Z,31.33
2022-07-26T10:04:16.471Z,31.32
2022-07-26T10:06:45.105Z,31.43
2022-07-26T10:09:14.611Z,31.72
2022-07-26T10:11:44.648Z,31.88
2022-07-26T10:14:38.794Z,31.83
2022-07-26T10:17:40.901Z,31.84
2022-07-26T10:20:17.461Z,31.53
2022-07-26T10:22:49.124Z,31.44
2022-07-26T10:25:48.931Z,31.51
2022-07-26T10:28:28.564Z,31.77
2022-07-26T10:31:31.883Z,32.16
2022-07-26T10:34:02.738Z,32.09
2022-07-26T10:36:38.318Z,32.04
2022-07-26T10:39:13.633Z,32.18
2022-07-26T10:41:45.479Z,32.51
2022-07-26T10:44:19.894Z,32.71
2022-07-26T10:47:18.931Z,32.92
2022-07-26T10:49:58.981Z,33.09
2022-07-26T10:52:30.780Z,33.03
2022-07-26T10:55:18.344Z,33.10
2022-07-26T10:57:48.972Z,33.26
2022-07-26T11:00:20.527Z,33.29
2022-07-26T11:02:57.532Z,33.42
2022-07-26T11:05:31.220Z,33.54
2022-07-26T11:08:11.155Z,33.38
2022-07-26T11:10:40.753Z,33.39
2022-07-26T11:13:12.403Z,33.39
2022-07-26T11:15:43.198Z,33.56
2022-07-26T11:18:32.716Z,33.79
2022-07-26T11:21:11.348Z,33.75
2022-07-26T11:23:44.838Z,33.51
2022-07-26T11:26:15.994Z,33.34
2022-07-26T11:28:57.825Z,33.25
2022-07-26T11:31:51.490Z,33.04
2022-07-26T11:34:20.187Z,32.92
2022-07-26T11:36:49.269Z,33.06
2022-07-26T11:39:24.454Z,33.21
2022-07-26T11:41:58.024Z,33.34
2022-07-26T11:44:26.478Z,33.37
2022-07-26T11:46:54.946Z,33.29
2022-07-26T11:49:52.457Z,33.42
2022-07-26T11:52:15.807Z,33.53
2022-07-26T11:54:55.662Z,33.67
2022-07-26T11:57:30.007Z,33.71
2022-07-26T12:00:00.892Z,33.57
2022-07-26T12:02:30.255Z,33.57
2022-07-26T12:05:15.221Z,33.60
2022-07-26T12:07:58.944Z,33.76
2022-07-26T12:10:29.496Z,33.84
2022-07-26T12:13:14.911Z,33.88
2022-07-26T12:15:48.690Z,33.97
2022-07-26T12:18:24.621Z,34.17
2022-07-26T12:21:05.208Z,34.29
2022-07-26T12:23:45.926Z,34.46
2022-07-26T12:26:23.615Z,34.60
2022-07-26T12:28:52.280Z,34.70
2022-07-26T12:31:25.440Z,34.80
2022-07-26T12:33:53.989Z,34.63
2022-07-26T12:36:27.752Z,34.34
2022-07-26T12:38:57.895Z,34.01
2022-07-26T12:41:39.425Z,33.87
2022-07-26T12:44:11.926Z,33.87
2022-07-26T12:46:40.443Z,33.77
2022-07-26T12:49:08.793Z,33.87
2022-07-26T12:51:37.335Z,33.97
2022-07-26T12:54:06.693Z,34.05
2022-07-26T12:56:36.498Z,34.15
2022-07-26T12:59:04.717Z,34.45
2022-07-26T13:01:33.722Z,34.53
2022-07-26T13:04:02.137Z,34.73
2022-07-26T13:06:30.494Z,34.93
2022-07-26T13:08:58.552Z,35.01
2022-07-26T13:11:26.783Z,34.63
2022-07-26T13:13:57.376Z,34.64
2022-07-26T13:16:26.248Z,34.64
2022-07-26T13:18:54.526Z,34.57
2022-07-26T13:21:22.699Z,34.51
2022-07-26T13:23:51.164Z,34.48
2022-07-26T13:26:19.302Z,34.42
2022-07-26T13:28:49.890Z,34.28
2022-07-26T13:31:20.588Z,34.31
2022-07-26T13:33:48.757Z,34.43
2022-07-26T13:36:17.088Z,34.62
2022-07-26T13:38:45.230Z,34.79
2022-07-26T13:41:13.515Z,34.74
2022-07-26T13:43:41.708Z,34.72
2022-07-26T13:46:09.845Z,34.70
2022-07-26T13:48:48.061Z,34.74
2022-07-26T13:51:20.865Z,34.83
2022-07-26T13:53:54.771Z,35.00
2022-07-26T13:56:23.689Z,35.00
2022-07-26T13:58:51.716Z,34.96
2022-07-26T14:01:19.976Z,34.93
2022-07-26T14:04:10.849Z,34.97
2022-07-26T14:06:40.276Z,34.90
2022-07-26T14:09:11.000Z,35.01
2022-07-26T14:11:40.600Z,34.86
2022-07-26T14:14:09.531Z,34.81
2022-07-26T14:16:38.920Z,34.76
2022-07-26T14:19:07.205Z,34.61
2022-07-26T14:21:45.498Z,34.61
2022-07-26T14:24:26.502Z,34.58
2022-07-26T14:26:59.258Z,34.32
2022-07-26T14:29:29.369Z,34.45
2022-07-26T14:31:57.893Z,34.34
2022-07-26T14:34:26.080Z,34.38
2022-07-26T14:36:55.775Z,34.45
2022-07-26T14:39:23.819Z,34.72
2022-07-26T14:41:52.054Z,34.67
2022-07-26T14:44:20.361Z,34.82
2022-07-26T14:46:48.518Z,34.57
2022-07-26T14:49:16.699Z,34.72
2022-07-26T14:51:45.703Z,34.81
2022-07-26T14:54:18.218Z,34.87
2022-07-26T14:56:46.482Z,34.92
2022-07-26T14:59:14.729Z,34.83
2022-07-26T15:01:43.285Z,34.89
2022-07-26T15:04:11.891Z,34.81
2022-07-26T15:06:40.317Z,34.79
2022-07-26T15:09:08.376Z,34.64
2022-07-26T15:11:37.931Z,34.41
2022-07-26T15:14:06.602Z,34.40
2022-07-26T15:16:34.894Z,34.16
2022-07-26T15:19:03.191Z,34.14
2022-07-26T15:21:31.383Z,34.08
2022-07-26T15:23:59.521Z,34.14
2022-07-26T15:26:27.645Z,34.31
2022-07-26T15:28:57.270Z,34.48
2022-07-26T15:31:37.395Z,34.59
2022-07-26T15:34:07.908Z,34.71
2022-07-26T15:36:36.324Z,34.78
2022-07-26T15:39:15.945Z,34.88
2022-07-26T15:41:45.469Z,34.98
2022-07-26T15:44:17.398Z,34.99
2022-07-26T15:46:48.023Z,34.98
2022-07-26T15:49:18.156Z,34.97
2022-07-26T15:51:46.990Z,34.99
2022-07-26T15:54:16.408Z,34.93
2022-07-26T15:56:44.773Z,34.78
2022-07-26T15:59:14.247Z,34.79
2022-07-26T16:01:42.611Z,34.78
2022-07-26T16:04:11.119Z,34.49
2022-07-26T16:06:40.079Z,34.67
2022-07-26T16:09:17.712Z,34.59
2022-07-26T16:11:46.806Z,34.47
2022-07-26T16:14:16.577Z,34.38
2022-07-26T16:16:45.164Z,34.37
2022-07-26T16:19:13.924Z,34.42
2022-07-26T16:21:42.383Z,34.29
2022-07-26T16:24:10.596Z,34.25
2022-07-26T16:26:38.741Z,34.23
2022-07-26T16:29:07.257Z,34.19
2022-07-26T16:31:37.559Z,34.28
2022-07-26T16:34:05.677Z,34.26
2022-07-26T16:36:33.873Z,34.19
2022-07-26T16:39:02.173Z,34.13
2022-07-26T16:41:30.445Z,34.09
2022-07-26T16:43:58.961Z,34.18
2022-07-26T16:46:27.932Z,34.02
2022-07-26T16:48:57.680Z,33.88
2022-07-26T16:51:26.007Z,33.84
2022-07-26T16:53:55.281Z,33.81
2022-07-26T16:56:23.453Z,33.72
2022-07-26T16:58:51.876Z,33.84
2022-07-26T17:01:20.062Z,33.85
2022-07-26T17:03:48.606Z,33.82
2022-07-26T17:06:18.245Z,33.74
2022-07-26T17:08:46.689Z,33.71
2022-07-26T17:11:14.871Z,33.65
2022-07-26T17:13:43.089Z,33.56
2022-07-26T17:16:11.319Z,33.51
2022-07-26T17:18:39.579Z,33.39
2022-07-26T17:21:07.872Z,33.37
2022-07-26T17:23:38.659Z,33.32
2022-07-26T17:26:06.837Z,33.25
2022-07-26T17:28:34.956Z,33.14
2022-07-26T17:31:03.152Z,33.05
2022-07-26T17:33:31.621Z,32.95
2022-07-26T17:36:03.275Z,32.84
2022-07-26T17:38:32.888Z,32.75
2022-07-26T17:41:04.011Z,32.59
2022-07-26T17:43:36.758Z,32.51
2022-07-26T17:46:05.517Z,32.36
2022-07-26T17:48:34.428Z,32.29
2022-07-26T17:51:02.565Z,32.18
2022-07-26T17:53:34.166Z,32.09
2022-07-26T17:56:04.349Z,31.98
2022-07-26T17:58:33.656Z,31.88
2022-07-26T18:01:01.802Z,31.79
2022-07-26T18:03:30.098Z,31.65
2022-07-26T18:05:58.577Z,31.52
2022-07-26T18:08:28.133Z,31.42
2022-07-26T18:10:56.957Z,31.31
2022-07-26T18:13:27.097Z,31.25
2022-07-26T18:15:55.762Z,31.19
2022-07-26T18:18:24.739Z,31.14
2022-07-26T18:20:53.194Z,31.07
2022-07-26T18:23:21.714Z,30.99
2022-07-26T18:25:49.888Z,30.88
2022-07-26T18:28:18.230Z,30.82
2022-07-26T18:30:47.770Z,30.73
2022-07-26T18:33:15.900Z,30.65
2022-07-26T18:35:44.159Z,30.60
2022-07-26T18:38:12.859Z,30.60
2022-07-26T18:40:41.097Z,30.64
2022-07-26T18:43:09.534Z,30.62
2022-07-26T18:45:38.450Z,30.57
2022-07-26T18:48:08.652Z,30.49
2022-07-26T18:50:40.078Z,30.40
2022-07-26T18:53:08.651Z,30.40
2022-07-26T18:55:37.102Z,30.31
2022-07-26T18:58:07.043Z,30.27
2022-07-26T19:00:37.069Z,30.22
2022-07-26T19:03:05.614Z,30.24
2022-07-26T19:05:35.729Z,30.21
2022-07-26T19:08:05.666Z,30.06
2022-07-26T19:10:33.840Z,29.91
2022-07-26T19:13:02.170Z,29.80
2022-07-26T19:15:31.393Z,29.78
2022-07-26T19:17:59.723Z,29.95
2022-07-26T19:20:27.988Z,29.90
2022-07-26T19:22:57.939Z,29.87
2022-07-26T19:25:26.348Z,29.80
2022-07-26T19:27:55.032Z,29.67
2022-07-26T19:30:23.704Z,29.55
2022-07-26T19:32:51.984Z,29.45
2022-07-26T19:35:20.949Z,29.39
2022-07-26T19:37:49.083Z,29.35
2022-07-26T19:40:18.724Z,29.28
2022-07-26T19:42:47.761Z,29.25
2022-07-26T19:45:16.059Z,29.24
2022-07-26T19:47:44.622Z,29.16
2022-07-26T19:50:13.104Z,29.09
2022-07-26T19:52:41.495Z,29.02
2022-07-26T19:55:10.931Z,28.93
2022-07-26T19:57:40.553Z,28.87
2022-07-26T20:00:10.565Z,28.76
2022-07-26T20:02:41.050Z,28.70
2022-07-26T20:05:10.696Z,28.57
2022-07-26T20:07:39.312Z,28.58
2022-07-26T20:10:11.759Z,28.52
2022-07-26T20:12:42.617Z,28.50
2022-07-26T20:15:11.993Z,28.39
2022-07-26T20:17:41.525Z,28.34
2022-07-26T20:20:11.957Z,28.26
2022-07-26T20:22:40.573Z,28.23
2022-07-26T20:25:09.733Z,28.17
2022-07-26T20:27:38.005Z,28.14
2022-07-26T20:30:09.407Z,28.09
2022-07-26T20:32:37.587Z,28.08
2022-07-26T20:35:06.283Z,28.08
2022-07-26T20:37:34.525Z,28.07
2022-07-26T20:40:02.868Z,28.01
2022-07-26T20:42:31.792Z,27.98
2022-07-26T20:45:01.223Z,27.92
2022-07-26T20:47:31.182Z,27.85
2022-07-26T20:50:03.179Z,27.80
2022-07-26T20:52:32.463Z,27.71
2022-07-26T20:55:00.678Z,27.71
2022-07-26T20:57:28.934Z,27.71
2022-07-26T20:59:57.197Z,27.72
2022-07-26T21:02:25.521Z,27.78
2022-07-26T21:04:55.301Z,27.78
2022-07-26T21:07:24.311Z,27.73
2022-07-26T21:10:13.080Z,27.66
2022-07-26T21:12:41.239Z,27.60
2022-07-26T21:15:10.300Z,27.58
2022-07-26T21:17:39.703Z,27.55
2022-07-26T21:20:10.079Z,27.49
2022-07-26T21:22:38.468Z,27.46
2022-07-26T21:25:08.097Z,27.39
2022-07-26T21:27:36.316Z,27.32
2022-07-26T21:30:05.121Z,27.22
2022-07-26T21:32:33.282Z,27.21
2022-07-26T21:35:01.854Z,27.11
2022-07-26T21:37:33.243Z,27.05
2022-07-26T21:40:01.536Z,26.99
2022-07-26T21:42:29.805Z,26.97
2022-07-26T21:44:57.901Z,26.91
2022-07-26T21:47:25.963Z,26.85
2022-07-26T21:49:54.046Z,26.77
2022-07-26T21:52:22.186Z,26.66
2022-07-26T21:54:51.737Z,26.63
2022-07-26T21:57:20.174Z,26.59
2022-07-26T21:59:49.548Z,26.52
2022-07-26T22:02:19.969Z,26.46
2022-07-26T22:04:50.026Z,26.45
2022-07-26T22:07:18.222Z,26.36
2022-07-26T22:09:46.486Z,26.33
2022-07-26T22:12:17.565Z,26.29
2022-07-26T22:14:45.974Z,26.23
2022-07-26T22:17:15.404Z,26.11
2022-07-26T22:19:43.555Z,26.09
2022-07-26T22:22:11.814Z,26.04
2022-07-26T22:24:39.922Z,26.05
2022-07-26T22:27:08.049Z,25.98
2022-07-26T22:29:38.833Z,25.89
2022-07-26T22:32:08.182Z,25.88
2022-07-26T22:34:36.533Z,25.85
2022-07-26T22:37:04.720Z,25.80
2022-07-26T22:39:32.869Z,25.70
2022-07-26T22:42:15.704Z,25.64
2022-07-26T22:44:45.811Z,25.58
2022-07-26T22:47:13.922Z,25.49
2022-07-26T22:49:42.062Z,25.43
2022-07-26T22:52:10.325Z,25.28
2022-07-26T22:54:38.496Z,25.23
2022-07-26T22:57:06.663Z,25.13
2022-07-26T22:59:34.873Z,25.08
2022-07-26T23:02:04.593Z,25.05
2022-07-26T23:04:32.729Z,24.99
2022-07-26T23:07:02.484Z,25.01
2022-07-26T23:09:32.831Z,24.95
2022-07-26T23:12:00.970Z,24.86
2022-07-26T23:14:29.245Z,24.82
2022-07-26T23:16:57.369Z,24.83
2022-07-26T23:19:27.344Z,24.90
2022-07-26T23:21:55.546Z,24.97
2022-07-26T23:24:23.881Z,24.89
2022-07-26T23:26:51.951Z,24.77
2022-07-26T23:29:20.108Z,24.68
2022-07-26T23:31:48.298Z,24.58
2022-07-26T23:34:16.503Z,24.58
2022-07-26T23:36:46.373Z,24.64
2022-07-26T23:39:14.977Z,24.49
2022-07-26T23:41:43.257Z,24.44
2022-07-26T23:44:11.452Z,24.39
2022-07-26T23:46:40.263Z,24.35
2022-07-26T23:49:08.767Z,24.30
2022-07-26T23:51:39.191Z,24.26
2022-07-26T23:54:08.760Z,24.21
2022-07-26T23:56:36.872Z,24.21
2022-07-26T23:59:04.966Z,24.22
